Tonypandy, United Kingdom
Current Conditions -  °F | °C
As of 12:50 AM on Sunday 21 Dec 2014 (Local Time) from EGDX Reporting Station
Drizzle Drizzle  
Wind Chill: 40°   Ceiling: Unl
Heat Index: 46°   Visibility: 6mi
Dew Point: 45°   Wind: 15mph
Humidity: 93%   Direction: 270°W
Pressure: 30.42"   Gusts: NA
Location:  51.62°N, 3.45°W
Report Text: EGDX 210050Z AUTO 27013KT 9999 -DZ FEW006/// SCT028/// 08/07 Q1030
Loading
Personal Weather Stations






























Interactive Weather Map New forecast layout! Learn more

10-Day Weather Forecast

Advertisements
Track Severe Weather on mobile